Time;durP1;ratioP1;P1;durP2;ratioP2;P2;SDS_P1;SDS_P2;PMS_P1;PMS_P2;Temp;Humidity;BMP_temperature;BMP_pressure;BME280_temperature;BME280_humidity;BME280_pressure;Samples;Min_cycle;Max_cycle;Signal;HPM_P1;HPM_P2
2023/04/14 00:02:03;;;;;;;0.85;0.80;;;19.00;50.50;;;;;;4972666;28;20217;-70
2023/04/14 00:04:28;;;;;;;0.63;0.63;;;18.90;50.40;;;;;;4973132;28;20232;-70
2023/04/14 00:06:57;;;;;;;0.70;0.70;;;19.00;50.50;;;;;;4973186;28;20201;-70
2023/04/14 00:09:23;;;;;;;0.90;0.90;;;19.00;50.50;;;;;;4973193;28;20269;-70
2023/04/14 00:11:49;;;;;;;0.85;0.85;;;19.00;50.50;;;;;;4972718;28;20213;-70
2023/04/14 00:14:15;;;;;;;0.95;0.90;;;19.00;50.50;;;;;;4972679;28;20193;-70
2023/04/14 00:16:41;;;;;;;1.40;1.10;;;19.00;50.50;;;;;;4973097;28;20200;-70
2023/04/14 00:19:07;;;;;;;0.82;0.82;;;19.00;50.50;;;;;;4974405;28;20272;-70
2023/04/14 00:21:33;;;;;;;0.73;0.73;;;19.00;50.50;;;;;;4972578;28;20304;-70
2023/04/14 00:23:59;;;;;;;0.75;0.75;;;18.90;50.40;;;;;;4972871;28;20193;-70
2023/04/14 00:26:25;;;;;;;0.80;0.80;;;19.00;50.50;;;;;;4973977;28;20201;-70
2023/04/14 00:28:51;;;;;;;1.00;1.00;;;19.00;50.50;;;;;;4972742;28;20229;-70
2023/04/14 00:31:16;;;;;;;0.80;0.80;;;19.00;50.50;;;;;;4972712;28;20316;-70
2023/04/14 00:33:42;;;;;;;1.10;1.00;;;18.90;50.40;;;;;;4952284;28;20197;-70
2023/04/14 00:36:08;;;;;;;0.80;0.80;;;18.90;50.40;;;;;;4972912;28;20197;-70
2023/04/14 00:38:34;;;;;;;0.80;0.80;;;19.00;50.50;;;;;;4972783;28;20193;-70
2023/04/14 00:41:00;;;;;;;1.10;1.00;;;19.00;50.50;;;;;;4956420;28;20693;-70
2023/04/14 00:43:26;;;;;;;1.00;1.00;;;19.00;50.50;;;;;;4973622;28;20203;-70
2023/04/14 00:45:52;;;;;;;0.80;0.80;;;19.00;50.50;;;;;;4972794;28;20205;-70
2023/04/14 00:48:18;;;;;;;1.23;0.90;;;19.00;50.50;;;;;;4972466;28;20586;-70
2023/04/14 00:50:46;;;;;;;0.90;0.90;;;18.90;50.40;;;;;;4972285;28;20225;-70
2023/04/14 00:53:13;;;;;;;0.80;0.80;;;19.00;50.50;;;;;;4972595;28;20244;-70
2023/04/14 00:55:40;;;;;;;1.30;1.20;;;18.90;50.40;;;;;;4972550;28;20182;-70
2023/04/14 00:58:06;;;;;;;1.13;1.10;;;19.00;50.50;;;;;;4956345;28;20243;-70
2023/04/14 01:00:36;;;;;;;1.42;1.20;;;19.00;50.50;;;;;;4972350;28;20215;-70
2023/04/14 01:03:02;;;;;;;1.30;1.20;;;19.00;50.50;;;;;;4972001;28;20284;-70
2023/04/14 01:05:28;;;;;;;2.00;1.80;;;19.00;50.50;;;;;;4956198;28;20199;-70
2023/04/14 01:07:54;;;;;;;1.40;1.30;;;19.00;50.50;;;;;;4952938;28;20194;-70
2023/04/14 01:10:20;;;;;;;1.48;1.38;;;19.00;50.50;;;;;;4968779;28;20217;-70
2023/04/14 01:13:49;;;;;;;1.50;1.38;;;19.00;50.50;;;;;;4972963;28;20190;-70
2023/04/14 01:16:32;;;;;;;1.60;1.50;;;19.00;50.50;;;;;;4972019;28;20197;-70
2023/04/14 01:19:41;;;;;;;1.40;1.30;;;19.00;50.50;;;;;;4956088;28;20194;-70
2023/04/14 01:22:11;;;;;;;1.27;1.20;;;19.00;50.50;;;;;;4971878;28;20221;-70
2023/04/14 01:25:16;;;;;;;1.67;1.40;;;18.90;50.40;;;;;;4955922;28;20198;-70
2023/04/14 01:28:37;;;;;;;1.33;1.23;;;19.00;51.10;;;;;;4955907;28;20197;-70
2023/04/14 01:31:19;;;;;;;1.20;1.10;;;19.00;50.50;;;;;;4878847;29;20240;-70
2023/04/14 01:33:57;;;;;;;1.40;1.30;;;19.00;50.50;;;;;;4878999;29;20196;-70
2023/04/14 01:36:42;;;;;;;1.60;1.50;;;18.90;50.40;;;;;;4950795;28;20259;-69
2023/04/14 01:39:14;;;;;;;1.52;1.42;;;19.00;50.50;;;;;;4971840;28;20197;-70
2023/04/14 01:41:48;;;;;;;1.35;1.25;;;18.90;50.40;;;;;;4955513;28;20224;-70
2023/04/14 01:44:18;;;;;;;1.58;1.48;;;18.90;50.40;;;;;;4971912;28;20251;-70
2023/04/14 01:46:48;;;;;;;1.50;1.40;;;18.90;50.40;;;;;;4971791;28;20281;-70
2023/04/14 01:49:18;;;;;;;1.33;1.23;;;18.90;50.40;;;;;;4972030;28;20198;-70
2023/04/14 01:51:46;;;;;;;1.20;1.10;;;19.00;50.50;;;;;;4971291;28;20221;-70
2023/04/14 01:54:14;;;;;;;1.35;1.25;;;19.00;50.50;;;;;;4972933;28;20244;-70
2023/04/14 01:56:42;;;;;;;1.50;1.25;;;18.90;50.40;;;;;;4971602;28;20413;-70
2023/04/14 01:59:11;;;;;;;1.85;1.58;;;18.90;50.40;;;;;;4971658;28;20205;-70
2023/04/14 02:01:39;;;;;;;1.60;1.50;;;18.90;50.40;;;;;;4955321;28;20224;-70
2023/04/14 02:04:07;;;;;;;1.52;1.30;;;19.00;50.50;;;;;;4971605;28;20327;-70
2023/04/14 02:06:36;;;;;;;1.75;1.52;;;19.00;50.50;;;;;;4972003;28;20280;-70
2023/04/14 02:09:04;;;;;;;1.40;1.30;;;18.90;50.40;;;;;;4971923;28;20221;-70
2023/04/14 02:11:31;;;;;;;1.10;1.00;;;19.00;50.50;;;;;;4971343;28;20229;-70
2023/04/14 02:14:03;;;;;;;1.50;1.40;;;19.00;50.50;;;;;;4964804;28;20185;-70
2023/04/14 02:16:31;;;;;;;1.25;1.15;;;19.00;50.50;;;;;;4978978;28;20193;-71
2023/04/14 02:18:59;;;;;;;1.45;1.35;;;19.00;50.50;;;;;;4971602;28;20186;-70
2023/04/14 02:21:27;;;;;;;1.27;1.15;;;19.00;50.50;;;;;;4971382;28;20235;-70
2023/04/14 02:23:53;;;;;;;1.30;1.20;;;19.00;50.50;;;;;;4971315;28;20595;-70
2023/04/14 02:26:26;;;;;;;1.40;1.30;;;19.00;50.50;;;;;;4974711;28;20217;-70
2023/04/14 02:29:09;;;;;;;2.13;1.40;;;19.00;50.50;;;;;;4974857;28;20572;-70
2023/04/14 02:31:44;;;;;;;1.42;1.33;;;19.00;50.50;;;;;;4958554;28;20237;-70
2023/04/14 02:34:14;;;;;;;1.40;1.30;;;19.00;50.50;;;;;;4975150;28;20197;-70
2023/04/14 02:36:56;;;;;;;1.20;1.15;;;19.00;50.50;;;;;;4974815;28;20198;-70
2023/04/14 02:39:40;;;;;;;1.40;1.30;;;19.00;50.50;;;;;;4958638;28;20197;-70
2023/04/14 02:42:15;;;;;;;1.33;1.23;;;19.00;50.50;;;;;;4967654;28;20221;-70
2023/04/14 02:44:54;;;;;;;1.30;1.20;;;19.00;50.50;;;;;;4958722;28;20200;-70
2023/04/14 02:47:36;;;;;;;1.35;1.10;;;19.00;50.50;;;;;;4974718;28;20673;-70
2023/04/14 02:50:06;;;;;;;1.77;1.20;;;19.00;50.50;;;;;;4974547;28;20194;-70
2023/04/14 02:52:37;;;;;;;1.50;1.20;;;19.00;50.50;;;;;;4974556;28;20325;-70
2023/04/14 02:55:05;;;;;;;1.13;1.00;;;19.00;50.50;;;;;;4974534;28;20190;-70
2023/04/14 02:57:32;;;;;;;1.20;1.10;;;19.00;50.50;;;;;;4958431;28;20272;-70
2023/04/14 02:59:59;;;;;;;1.90;1.20;;;19.00;50.50;;;;;;4974661;28;20189;-70
2023/04/14 03:02:27;;;;;;;1.45;1.35;;;19.00;50.50;;;;;;4974213;28;20288;-70
2023/04/14 03:05:02;;;;;;;1.17;1.02;;;19.00;50.50;;;;;;4943813;28;20227;-70
2023/04/14 03:07:42;;;;;;;1.45;1.35;;;19.00;50.50;;;;;;4990394;28;20263;-70
2023/04/14 03:10:11;;;;;;;1.83;1.25;;;19.00;50.50;;;;;;4974155;28;20214;-70
2023/04/14 03:12:39;;;;;;;1.02;1.00;;;19.00;50.50;;;;;;4957913;28;20220;-70
2023/04/14 03:15:08;;;;;;;1.10;1.00;;;19.00;50.50;;;;;;4958486;28;20708;-70
2023/04/14 03:17:36;;;;;;;1.20;1.10;;;19.00;50.50;;;;;;4974140;28;20189;-70
2023/04/14 03:20:04;;;;;;;1.13;1.02;;;19.00;50.50;;;;;;4974103;28;20186;-70
2023/04/14 03:22:37;;;;;;;1.33;1.10;;;19.00;50.50;;;;;;4957847;28;20284;-70
2023/04/14 03:25:04;;;;;;;1.35;1.25;;;19.00;50.50;;;;;;4974439;28;20185;-70
2023/04/14 03:27:32;;;;;;;1.27;1.10;;;19.00;50.50;;;;;;4973841;28;20185;-70
2023/04/14 03:30:05;;;;;;;1.25;1.10;;;19.00;50.50;;;;;;4958258;28;20205;-70
2023/04/14 03:32:40;;;;;;;1.50;1.40;;;19.00;50.50;;;;;;4973633;28;20715;-70
2023/04/14 03:35:08;;;;;;;1.45;1.20;;;19.00;50.50;;;;;;4973822;28;20576;-70
2023/04/14 03:37:38;;;;;;;1.45;1.15;;;19.00;50.50;;;;;;4973001;28;20240;-70
2023/04/14 03:40:07;;;;;;;1.20;1.10;;;19.00;50.50;;;;;;4954396;28;20238;-70
2023/04/14 03:42:35;;;;;;;1.40;1.02;;;19.00;50.50;;;;;;4985501;28;20256;-70
2023/04/14 03:45:02;;;;;;;1.63;1.08;;;19.00;50.50;;;;;;4957485;28;20189;-70
2023/04/14 03:47:31;;;;;;;1.35;1.10;;;19.00;50.50;;;;;;4973819;28;20218;-71
2023/04/14 03:50:01;;;;;;;1.10;1.05;;;19.00;50.50;;;;;;4973457;28;20192;-70
2023/04/14 03:52:34;;;;;;;1.80;1.40;;;19.00;50.50;;;;;;4973158;28;20224;-70
2023/04/14 03:55:05;;;;;;;1.48;1.20;;;19.00;50.50;;;;;;4974755;28;20195;-70
2023/04/14 03:57:33;;;;;;;1.88;1.10;;;18.90;50.40;;;;;;4957391;28;20193;-70
2023/04/14 04:00:04;;;;;;;1.27;1.17;;;19.00;50.50;;;;;;4973310;28;20224;-70
2023/04/14 04:02:41;;;;;;;1.10;1.00;;;19.00;50.50;;;;;;4973203;28;20559;-70
2023/04/14 04:05:09;;;;;;;1.13;1.00;;;19.00;50.50;;;;;;4973165;28;20274;-70
2023/04/14 04:07:38;;;;;;;1.58;1.10;;;19.00;50.50;;;;;;4957097;28;20189;-70
2023/04/14 04:10:07;;;;;;;1.42;1.05;;;19.00;50.50;;;;;;4972996;28;20193;-70
2023/04/14 04:12:36;;;;;;;1.50;1.08;;;19.00;50.50;;;;;;4973095;28;20209;-70
2023/04/14 04:15:02;;;;;;;1.55;1.27;;;19.00;50.50;;;;;;4957050;28;20197;-70
2023/04/14 04:17:31;;;;;;;1.30;1.20;;;19.00;50.50;;;;;;4973198;28;20186;-70
2023/04/14 04:20:00;;;;;;;1.10;1.00;;;19.00;50.50;;;;;;4972987;28;20228;-70
2023/04/14 04:22:29;;;;;;;1.40;1.30;;;19.00;50.50;;;;;;4956614;28;20209;-71
2023/04/14 04:24:57;;;;;;;1.75;1.30;;;19.00;50.50;;;;;;4956723;28;20193;-71
2023/04/14 04:27:28;;;;;;;1.92;1.23;;;19.00;50.50;;;;;;4972272;28;20188;-70
2023/04/14 04:29:57;;;;;;;1.27;1.13;;;19.00;50.50;;;;;;4972569;28;20328;-70
2023/04/14 04:32:24;;;;;;;1.55;1.15;;;19.00;50.50;;;;;;4956712;28;20226;-70
2023/04/14 04:34:51;;;;;;;1.35;1.20;;;19.00;51.10;;;;;;4956855;28;20313;-70
2023/04/14 04:37:18;;;;;;;1.73;1.20;;;19.00;50.50;;;;;;4972687;28;20217;-70
2023/04/14 04:39:44;;;;;;;1.70;1.60;;;19.00;50.50;;;;;;4956402;28;20181;-70
2023/04/14 04:42:10;;;;;;;1.67;1.35;;;19.00;50.50;;;;;;4956477;28;20364;-70
2023/04/14 04:44:36;;;;;;;1.73;1.00;;;19.00;50.50;;;;;;4972868;28;20253;-70
2023/04/14 04:47:03;;;;;;;1.33;1.23;;;19.00;50.50;;;;;;4970926;28;20194;-70
2023/04/14 04:49:29;;;;;;;1.45;1.10;;;19.00;50.40;;;;;;4967831;28;20256;-70
2023/04/14 04:52:00;;;;;;;1.52;1.23;;;19.00;50.40;;;;;;4972039;28;20696;-70
2023/04/14 04:54:27;;;;;;;1.23;1.00;;;19.00;50.40;;;;;;4972473;28;20190;-70
2023/04/14 04:56:52;;;;;;;1.10;0.98;;;19.00;50.40;;;;;;4988647;28;20189;-71
2023/04/14 04:59:18;;;;;;;2.00;1.00;;;19.00;50.30;;;;;;4956194;28;20201;-70
2023/04/14 05:01:44;;;;;;;1.17;1.08;;;19.00;50.30;;;;;;4973259;28;20709;-70
2023/04/14 05:04:10;;;;;;;2.17;1.30;;;19.00;50.30;;;;;;4956267;28;20212;-70
2023/04/14 05:06:36;;;;;;;1.77;1.45;;;19.00;50.30;;;;;;4973453;28;20209;-70
2023/04/14 05:09:03;;;;;;;1.98;1.20;;;19.00;50.30;;;;;;4972107;28;20182;-70
2023/04/14 05:11:30;;;;;;;2.25;1.17;;;19.00;50.30;;;;;;4973077;28;20227;-70
2023/04/14 05:13:56;;;;;;;2.20;1.30;;;19.00;50.30;;;;;;4972239;28;20197;-70
2023/04/14 05:16:22;;;;;;;1.23;1.02;;;19.00;50.30;;;;;;4973423;28;20244;-70
2023/04/14 05:18:47;;;;;;;1.20;1.10;;;19.00;50.30;;;;;;4972389;28;20309;-70
2023/04/14 05:21:14;;;;;;;1.50;1.13;;;19.00;50.30;;;;;;4972003;28;20605;-70
2023/04/14 05:23:42;;;;;;;1.42;1.08;;;19.00;50.30;;;;;;4971974;28;20747;-70
2023/04/14 05:26:11;;;;;;;1.52;1.40;;;19.00;50.30;;;;;;4972079;28;20204;-70
2023/04/14 05:28:38;;;;;;;1.42;1.33;;;18.90;50.20;;;;;;4972003;28;20189;-70
2023/04/14 05:31:04;;;;;;;1.73;1.40;;;19.00;50.30;;;;;;4971936;28;20313;-70
2023/04/14 05:33:30;;;;;;;2.47;1.42;;;19.00;50.20;;;;;;4971798;28;20280;-70
2023/04/14 05:35:55;;;;;;;1.08;0.95;;;19.00;50.30;;;;;;4971944;28;20197;-70
2023/04/14 05:38:21;;;;;;;2.35;1.52;;;19.00;50.20;;;;;;4971997;28;20194;-70
2023/04/14 05:40:47;;;;;;;1.35;1.10;;;19.00;50.20;;;;;;4972086;28;20221;-70
2023/04/14 05:43:15;;;;;;;1.80;1.10;;;19.00;50.20;;;;;;4956013;28;20197;-70
2023/04/14 05:45:41;;;;;;;1.40;1.30;;;19.00;50.20;;;;;;4971989;28;20268;-70
2023/04/14 05:48:07;;;;;;;1.30;0.93;;;19.00;50.20;;;;;;4955668;28;20193;-70
2023/04/14 05:50:34;;;;;;;1.10;0.90;;;19.00;50.20;;;;;;4972883;28;20221;-70
2023/04/14 05:53:00;;;;;;;2.13;1.20;;;19.00;50.20;;;;;;4971770;28;20198;-70
2023/04/14 05:55:26;;;;;;;1.35;1.10;;;19.00;50.20;;;;;;4972127;28;20202;-70
2023/04/14 05:57:52;;;;;;;1.85;1.00;;;19.00;50.20;;;;;;4971870;28;20189;-70
2023/04/14 06:00:18;;;;;;;1.70;1.25;;;19.00;50.20;;;;;;4973216;28;20555;-70
2023/04/14 06:02:44;;;;;;;1.55;1.30;;;19.00;50.20;;;;;;4975488;28;20217;-70
2023/04/14 06:05:11;;;;;;;1.75;1.25;;;19.00;50.20;;;;;;4975748;28;20294;-70
2023/04/14 06:07:40;;;;;;;1.23;1.05;;;19.00;50.20;;;;;;4976529;28;20200;-70
2023/04/14 06:10:07;;;;;;;1.40;1.30;;;19.00;50.30;;;;;;4975233;28;20202;-70
2023/04/14 06:12:33;;;;;;;1.63;1.10;;;19.00;50.20;;;;;;4975138;28;20221;-70
2023/04/14 06:14:58;;;;;;;1.42;1.10;;;19.00;50.30;;;;;;4975183;28;20211;-70
2023/04/14 06:17:24;;;;;;;2.33;1.02;;;19.00;50.30;;;;;;4975256;28;20194;-70
2023/04/14 06:19:50;;;;;;;1.75;1.20;;;19.00;50.20;;;;;;4975257;28;20208;-70
2023/04/14 06:22:18;;;;;;;1.38;1.27;;;19.00;50.40;;;;;;4975189;28;20228;-70
2023/04/14 06:24:47;;;;;;;1.65;1.38;;;19.00;50.30;;;;;;4975283;28;20230;-70
2023/04/14 06:27:14;;;;;;;1.15;1.05;;;19.00;50.30;;;;;;4975031;28;20229;-70
2023/04/14 06:29:40;;;;;;;1.42;1.08;;;19.00;50.40;;;;;;4976187;28;20201;-70
2023/04/14 06:32:06;;;;;;;1.35;1.13;;;19.00;50.40;;;;;;4958323;28;20226;-70
2023/04/14 06:34:32;;;;;;;1.20;1.10;;;19.00;50.30;;;;;;4975122;28;20193;-70
2023/04/14 06:36:58;;;;;;;1.30;1.20;;;19.00;50.40;;;;;;4974824;28;20190;-70
2023/04/14 06:39:25;;;;;;;1.83;1.33;;;19.00;50.40;;;;;;4974905;28;20197;-69
2023/04/14 06:41:50;;;;;;;1.10;1.00;;;19.00;50.40;;;;;;4974442;28;20228;-70
2023/04/14 06:44:16;;;;;;;1.27;1.10;;;19.00;50.50;;;;;;4974736;28;20288;-70
2023/04/14 06:46:42;;;;;;;1.75;1.10;;;19.00;50.50;;;;;;4975913;28;20185;-70
2023/04/14 06:49:08;;;;;;;1.10;0.80;;;19.00;50.50;;;;;;4974578;28;20200;-70
2023/04/14 06:51:34;;;;;;;1.35;1.00;;;19.00;50.50;;;;;;4957968;28;20221;-70
2023/04/14 06:54:00;;;;;;;1.60;1.23;;;19.00;50.50;;;;;;4974673;28;20193;-70
2023/04/14 06:56:26;;;;;;;2.45;1.10;;;19.00;50.50;;;;;;4958297;28;20200;-70
2023/04/14 06:58:52;;;;;;;1.73;1.30;;;19.00;50.50;;;;;;4974640;28;20190;-70
2023/04/14 07:01:17;;;;;;;1.10;1.00;;;19.00;50.50;;;;;;4974201;28;20217;-70
2023/04/14 07:03:43;;;;;;;1.85;1.33;;;19.00;50.50;;;;;;4974281;28;20206;-70
2023/04/14 07:06:10;;;;;;;1.35;0.90;;;19.00;50.50;;;;;;4974447;28;20213;-70
2023/04/14 07:08:39;;;;;;;2.92;1.45;;;19.00;50.50;;;;;;4974469;28;20677;-70
2023/04/14 07:11:07;;;;;;;1.35;1.00;;;19.00;50.50;;;;;;4974565;28;20229;-70
2023/04/14 07:13:35;;;;;;;1.65;1.17;;;19.00;50.50;;;;;;4974102;28;20198;-70
2023/04/14 07:16:05;;;;;;;1.10;1.00;;;19.00;50.50;;;;;;4958364;28;20215;-70
2023/04/14 07:18:31;;;;;;;2.75;1.17;;;19.00;50.50;;;;;;4974273;28;20197;-70
2023/04/14 07:20:59;;;;;;;1.55;1.02;;;19.10;50.60;;;;;;4973839;28;20222;-70
2023/04/14 07:23:25;;;;;;;1.67;0.88;;;19.10;50.60;;;;;;4973838;28;20201;-70
2023/04/14 07:25:54;;;;;;;1.10;1.00;;;19.10;50.60;;;;;;4974027;28;20193;-70
2023/04/14 07:28:22;;;;;;;1.35;1.00;;;19.10;50.60;;;;;;4973820;28;20248;-70
2023/04/14 07:30:49;;;;;;;1.50;1.13;;;19.10;50.60;;;;;;4973718;28;20261;-70
2023/04/14 07:33:19;;;;;;;1.83;0.85;;;19.10;50.60;;;;;;4973582;28;20202;-70
2023/04/14 07:35:52;;;;;;;1.83;1.02;;;19.10;50.60;;;;;;4973739;28;20200;-70
2023/04/14 07:38:18;;;;;;;1.20;1.10;;;19.10;50.60;;;;;;4958075;28;20199;-70
2023/04/14 07:40:44;;;;;;;2.28;1.10;;;19.10;50.60;;;;;;4974234;28;20209;-70
2023/04/14 07:43:11;;;;;;;1.38;1.10;;;19.10;50.60;;;;;;4973832;28;20616;-70
2023/04/14 07:45:37;;;;;;;1.15;1.00;;;19.10;50.60;;;;;;4975371;28;20227;-70
2023/04/14 07:48:04;;;;;;;1.13;1.05;;;19.10;50.60;;;;;;4974655;28;20197;-70
2023/04/14 07:50:30;;;;;;;2.03;1.10;;;19.10;50.60;;;;;;4974576;28;20320;-70
2023/04/14 07:52:56;;;;;;;1.00;0.88;;;19.10;50.60;;;;;;4973455;28;20289;-70
2023/04/14 07:55:21;;;;;;;1.48;0.93;;;19.10;50.60;;;;;;4973687;28;20193;-70
2023/04/14 07:57:47;;;;;;;1.00;0.98;;;19.10;50.60;;;;;;4973758;28;20196;-70
2023/04/14 08:00:14;;;;;;;3.40;1.20;;;19.10;50.60;;;;;;4957263;28;20189;-70
2023/04/14 08:02:40;;;;;;;1.20;1.00;;;19.10;50.60;;;;;;4972872;28;20213;-70
2023/04/14 08:05:06;;;;;;;1.52;1.10;;;19.10;50.40;;;;;;4973719;28;20289;-70
2023/04/14 08:07:32;;;;;;;1.63;1.00;;;19.20;50.40;;;;;;4973403;28;20209;-70
2023/04/14 08:09:58;;;;;;;1.10;1.00;;;19.30;50.50;;;;;;4973454;28;20225;-70
2023/04/14 08:12:24;;;;;;;1.13;1.00;;;19.30;50.30;;;;;;4972926;28;20261;-70
2023/04/14 08:14:52;;;;;;;1.08;0.80;;;19.30;50.20;;;;;;4973174;28;20225;-70
2023/04/14 08:17:18;;;;;;;1.00;0.90;;;19.40;50.20;;;;;;4973428;28;20188;-71
2023/04/14 08:19:45;;;;;;;1.25;0.98;;;19.40;50.20;;;;;;4974394;28;20661;-70
2023/04/14 08:22:11;;;;;;;0.73;0.68;;;19.40;50.20;;;;;;4973668;28;20214;-70
2023/04/14 08:24:36;;;;;;;2.50;1.40;;;19.40;50.20;;;;;;4972757;28;20634;-70
2023/04/14 08:27:02;;;;;;;1.48;0.98;;;19.40;50.20;;;;;;4973005;28;20205;-70
2023/04/14 08:29:28;;;;;;;1.38;1.00;;;19.50;50.20;;;;;;4973904;28;20185;-70
2023/04/14 08:31:54;;;;;;;1.10;0.70;;;19.50;50.20;;;;;;4972774;28;20236;-70
2023/04/14 08:34:19;;;;;;;1.40;1.10;;;19.50;50.20;;;;;;4964716;28;20197;-70
2023/04/14 08:36:46;;;;;;;1.10;0.98;;;19.50;50.20;;;;;;4973899;28;20201;-70
2023/04/14 08:39:13;;;;;;;1.40;1.30;;;19.50;50.20;;;;;;4973828;28;20328;-70
2023/04/14 08:41:39;;;;;;;1.35;1.00;;;19.60;50.20;;;;;;4973079;28;20213;-70
2023/04/14 08:44:05;;;;;;;1.50;0.93;;;19.60;50.20;;;;;;4973995;28;20189;-70
2023/04/14 08:46:31;;;;;;;1.77;0.93;;;19.60;50.20;;;;;;4973739;28;20543;-70
2023/04/14 08:49:06;;;;;;;1.52;1.10;;;19.60;50.20;;;;;;4972822;28;20205;-69
2023/04/14 08:51:37;;;;;;;1.77;1.00;;;19.60;50.20;;;;;;4972119;28;20221;-70
2023/04/14 08:54:09;;;;;;;1.23;1.13;;;19.60;50.20;;;;;;4972654;28;20240;-69
2023/04/14 08:56:40;;;;;;;0.90;0.90;;;19.60;50.20;;;;;;4972497;28;20202;-70
2023/04/14 08:59:09;;;;;;;1.10;1.00;;;19.60;50.10;;;;;;4972788;28;20201;-70
2023/04/14 09:01:37;;;;;;;1.00;1.00;;;19.60;50.20;;;;;;4973352;28;20308;-70
2023/04/14 09:04:03;;;;;;;1.33;0.93;;;19.60;50.20;;;;;;4972660;28;20190;-70
2023/04/14 09:06:30;;;;;;;1.15;0.90;;;19.60;50.10;;;;;;4973461;28;20596;-70
2023/04/14 09:09:02;;;;;;;1.33;0.90;;;19.60;50.10;;;;;;4972390;28;20569;-70
2023/04/14 09:11:28;;;;;;;1.48;1.10;;;19.60;50.00;;;;;;4972080;28;20237;-70
2023/04/14 09:13:57;;;;;;;0.93;0.88;;;19.60;50.10;;;;;;4973366;28;20194;-69
2023/04/14 09:16:25;;;;;;;1.05;0.75;;;19.60;50.20;;;;;;4956175;28;20193;-69
2023/04/14 09:18:53;;;;;;;0.95;0.80;;;19.60;50.20;;;;;;4972497;28;20244;-70
2023/04/14 09:21:20;;;;;;;1.38;0.98;;;19.60;50.20;;;;;;4971907;28;20238;-70
2023/04/14 09:23:46;;;;;;;1.75;1.00;;;19.70;50.20;;;;;;4956065;28;20217;-70
2023/04/14 09:26:13;;;;;;;1.58;1.10;;;19.70;50.20;;;;;;4955918;28;20193;-70
2023/04/14 09:28:40;;;;;;;1.15;0.75;;;19.70;50.80;;;;;;4972188;28;20193;-70
2023/04/14 09:31:07;;;;;;;2.15;1.00;;;19.70;50.20;;;;;;4955855;28;20233;-70
2023/04/14 09:33:38;;;;;;;1.50;1.00;;;19.70;50.20;;;;;;4972086;28;20197;-70
2023/04/14 09:36:04;;;;;;;1.77;1.23;;;19.70;50.20;;;;;;4974963;28;20228;-70
2023/04/14 09:38:36;;;;;;;1.30;0.98;;;19.70;50.10;;;;;;4959808;28;20194;-70
2023/04/14 09:41:05;;;;;;;0.90;0.90;;;19.70;50.10;;;;;;4977094;28;20307;-70
2023/04/14 09:43:31;;;;;;;1.33;0.90;;;19.70;50.20;;;;;;4975787;28;20240;-70
2023/04/14 09:46:05;;;;;;;1.45;0.95;;;19.70;50.20;;;;;;4975824;28;20735;-70
2023/04/14 09:48:31;;;;;;;1.02;0.82;;;19.70;50.10;;;;;;4975702;28;20188;-70
2023/04/14 09:51:08;;;;;;;1.92;1.00;;;19.70;50.10;;;;;;4976587;28;20228;-70
2023/04/14 09:53:36;;;;;;;2.00;1.08;;;19.70;50.10;;;;;;4969949;28;20188;-70
2023/04/14 09:56:09;;;;;;;1.30;0.73;;;19.70;50.10;;;;;;4976809;28;20200;-70
2023/04/14 09:58:38;;;;;;;1.00;0.70;;;19.70;50.10;;;;;;4959430;28;20189;-70
2023/04/14 10:01:10;;;;;;;1.25;0.88;;;19.70;50.10;;;;;;4975496;28;20228;-70
2023/04/14 10:03:45;;;;;;;1.83;1.35;;;19.60;50.10;;;;;;4975677;28;20208;-70
2023/04/14 10:06:22;;;;;;;1.27;0.88;;;19.60;50.10;;;;;;4975601;28;20197;-70
2023/04/14 10:08:55;;;;;;;1.08;0.82;;;19.60;50.00;;;;;;4976648;28;20247;-70
2023/04/14 10:11:33;;;;;;;1.42;0.90;;;19.60;50.00;;;;;;4976247;28;20221;-70
2023/04/14 10:14:05;;;;;;;1.00;0.90;;;19.70;50.00;;;;;;4975335;28;20232;-70
2023/04/14 10:16:32;;;;;;;1.67;1.00;;;19.60;50.00;;;;;;4975290;28;20197;-70
2023/04/14 10:18:58;;;;;;;1.15;0.93;;;19.60;49.90;;;;;;4975441;28;20276;-70
2023/04/14 10:21:26;;;;;;;2.10;1.13;;;19.60;50.00;;;;;;4976237;28;20201;-70
2023/04/14 10:23:55;;;;;;;1.27;1.13;;;19.60;50.00;;;;;;4975022;28;20248;-70
2023/04/14 10:26:21;;;;;;;1.40;0.85;;;19.60;49.90;;;;;;4975332;28;20206;-70
2023/04/14 10:28:50;;;;;;;1.98;1.13;;;19.70;50.10;;;;;;4975073;28;20217;-70
2023/04/14 10:31:31;;;;;;;2.13;1.33;;;19.70;50.00;;;;;;4974843;28;20640;-70
2023/04/14 10:33:57;;;;;;;1.42;0.80;;;19.70;49.90;;;;;;4959018;28;20197;-70
2023/04/14 10:36:31;;;;;;;1.10;0.93;;;19.70;49.90;;;;;;4974764;28;20194;-70
2023/04/14 10:39:04;;;;;;;1.38;1.05;;;19.70;50.00;;;;;;4974985;28;20197;-70
2023/04/14 10:41:41;;;;;;;1.70;1.15;;;19.70;49.90;;;;;;4967164;28;20209;-70
2023/04/14 10:44:31;;;;;;;1.00;0.82;;;19.70;49.90;;;;;;4973859;28;20204;-70
2023/04/14 10:47:00;;;;;;;1.15;1.00;;;19.70;49.90;;;;;;4975755;28;20635;-70
2023/04/14 10:49:32;;;;;;;1.33;0.98;;;19.70;49.80;;;;;;4975076;28;20184;-70
2023/04/14 10:52:16;;;;;;;1.23;0.90;;;19.70;49.70;;;;;;4974370;28;20264;-70
2023/04/14 10:54:54;;;;;;;1.10;1.00;;;19.70;49.90;;;;;;4968695;28;20193;-70
2023/04/14 10:57:25;;;;;;;1.50;0.80;;;19.70;49.90;;;;;;4975877;28;20202;-70
2023/04/14 10:59:59;;;;;;;1.05;1.00;;;19.70;49.90;;;;;;4990948;28;20194;-70
2023/04/14 11:02:33;;;;;;;1.58;0.98;;;19.70;49.80;;;;;;4975391;28;20217;-70
2023/04/14 11:05:05;;;;;;;0.80;0.80;;;19.70;49.90;;;;;;4974569;28;20205;-70
2023/04/14 11:07:46;;;;;;;1.00;0.90;;;19.70;49.80;;;;;;4974600;28;20293;-70
2023/04/14 11:10:21;;;;;;;2.35;1.20;;;19.70;49.90;;;;;;4974257;28;20181;-70
2023/04/14 11:13:01;;;;;;;1.48;1.13;;;19.70;49.80;;;;;;4974045;28;20197;-70
2023/04/14 11:15:46;;;;;;;1.27;1.10;;;19.70;49.60;;;;;;4974125;28;20201;-70
2023/04/14 11:18:31;;;;;;;1.55;1.08;;;19.70;49.70;;;;;;4958370;28;20201;-70
2023/04/14 11:21:13;;;;;;;1.30;1.00;;;19.70;49.70;;;;;;4975346;28;20306;-70
2023/04/14 11:23:40;;;;;;;2.00;1.10;;;19.70;49.60;;;;;;4973991;28;20191;-70
2023/04/14 11:26:08;;;;;;;1.50;1.00;;;19.70;49.40;;;;;;4990553;28;20197;-70
2023/04/14 11:28:37;;;;;;;1.02;0.85;;;19.70;49.50;;;;;;4974257;28;20624;-70
2023/04/14 11:31:07;;;;;;;1.15;0.90;;;19.70;49.50;;;;;;4973950;28;20308;-70
2023/04/14 11:33:40;;;;;;;1.10;0.90;;;19.70;49.50;;;;;;4973789;28;20189;-70
2023/04/14 11:36:08;;;;;;;1.10;0.93;;;19.70;49.60;;;;;;4975150;28;20228;-70
2023/04/14 11:38:41;;;;;;;1.30;0.85;;;19.70;49.60;;;;;;4975313;28;20201;-70
2023/04/14 11:41:08;;;;;;;1.30;0.77;;;19.70;49.60;;;;;;4973646;28;20252;-70
2023/04/14 11:43:36;;;;;;;1.52;1.02;;;19.80;49.70;;;;;;4973555;28;20290;-70
2023/04/14 11:46:04;;;;;;;1.60;0.85;;;19.70;49.70;;;;;;4973954;28;20189;-70
2023/04/14 11:48:30;;;;;;;0.80;0.68;;;19.80;49.80;;;;;;4973768;28;20198;-70
2023/04/14 11:51:01;;;;;;;1.00;0.90;;;19.70;49.60;;;;;;4957210;28;20225;-70
2023/04/14 11:53:27;;;;;;;1.27;0.80;;;19.70;49.60;;;;;;4973216;28;20207;-70
2023/04/14 11:55:53;;;;;;;1.10;0.70;;;19.70;49.40;;;;;;4973704;28;20194;-70
2023/04/14 11:58:25;;;;;;;1.48;0.80;;;19.70;49.40;;;;;;4972755;28;20274;-70
2023/04/14 12:00:52;;;;;;;1.35;1.00;;;19.70;49.40;;;;;;4957066;28;20213;-70
2023/04/14 12:03:19;;;;;;;1.10;0.80;;;19.70;49.40;;;;;;4974206;28;20189;-70
2023/04/14 12:05:45;;;;;;;0.82;0.82;;;19.70;49.50;;;;;;4973123;28;20190;-70
2023/04/14 12:08:11;;;;;;;1.02;0.80;;;19.70;49.40;;;;;;4973059;28;20552;-70
2023/04/14 12:10:40;;;;;;;1.20;0.90;;;19.70;49.40;;;;;;4972878;28;20225;-70
2023/04/14 12:13:10;;;;;;;0.90;0.90;;;19.70;49.50;;;;;;4974119;28;20193;-70
2023/04/14 12:15:41;;;;;;;1.10;0.85;;;19.70;49.50;;;;;;4957259;28;20190;-70
2023/04/14 12:18:12;;;;;;;1.35;1.08;;;19.70;49.30;;;;;;4973056;28;20194;-70
2023/04/14 12:20:53;;;;;;;1.25;0.80;;;19.70;49.20;;;;;;4973223;28;20208;-70
2023/04/14 12:23:19;;;;;;;1.02;0.75;;;19.70;49.30;;;;;;4956997;28;20205;-70
2023/04/14 12:25:48;;;;;;;1.00;0.82;;;19.70;49.50;;;;;;4973297;28;20297;-70
2023/04/14 12:28:26;;;;;;;0.85;0.80;;;19.70;49.40;;;;;;4973979;28;20202;-70
2023/04/14 12:30:55;;;;;;;1.35;0.90;;;19.70;49.40;;;;;;4972725;28;20221;-70
2023/04/14 12:33:22;;;;;;;1.10;0.80;;;19.70;49.50;;;;;;4972706;28;20201;-70
2023/04/14 12:35:52;;;;;;;0.98;0.85;;;19.80;49.70;;;;;;4973087;28;20201;-70
2023/04/14 12:38:18;;;;;;;0.88;0.80;;;19.70;49.60;;;;;;4974054;28;20265;-70
2023/04/14 12:40:46;;;;;;;1.25;0.95;;;19.80;49.70;;;;;;4973785;28;20280;-70
2023/04/14 12:43:15;;;;;;;1.17;0.93;;;19.70;49.60;;;;;;4973748;28;20220;-70
2023/04/14 12:45:47;;;;;;;0.80;0.80;;;19.80;49.60;;;;;;4972609;28;20209;-70
2023/04/14 12:48:16;;;;;;;0.85;0.80;;;19.70;49.40;;;;;;4973699;28;20189;-70
2023/04/14 12:50:43;;;;;;;1.45;0.80;;;19.70;49.50;;;;;;4973562;28;20225;-70
2023/04/14 12:53:28;;;;;;;1.05;0.77;;;19.80;49.60;;;;;;4972734;28;20221;-70
2023/04/14 12:56:23;;;;;;;0.75;0.75;;;19.80;49.50;;;;;;4947692;29;20198;-70
2023/04/14 12:58:50;;;;;;;0.70;0.70;;;19.80;49.50;;;;;;4972220;28;20288;-70
2023/04/14 13:01:18;;;;;;;0.77;0.77;;;19.80;49.40;;;;;;4972054;28;20598;-71